createdAt,value
2023-03-20T00:00:35.942Z,47.83
2023-03-20T00:05:59.380Z,51.30
2023-03-20T00:11:06.066Z,35.13
2023-03-20T00:16:13.896Z,35.47
2023-03-20T00:21:22.523Z,34.22
2023-03-20T00:26:35.101Z,41.03
2023-03-20T00:31:42.646Z,34.08
2023-03-20T00:36:51.277Z,28.40
2023-03-20T00:41:59.901Z,21.77
2023-03-20T00:47:13.817Z,18.63
2023-03-20T00:52:23.409Z,20.90
2023-03-20T00:57:37.811Z,16.00
2023-03-20T01:02:46.285Z,16.90
2023-03-20T01:07:54.384Z,17.25
2023-03-20T01:13:04.186Z,16.85
2023-03-20T01:18:15.317Z,17.25
2023-03-20T01:23:27.055Z,18.00
2023-03-20T01:28:34.676Z,22.00
2023-03-20T01:33:41.593Z,26.70
2023-03-20T01:38:53.386Z,23.55
2023-03-20T01:44:00.135Z,24.40
2023-03-20T01:49:32.591Z,24.10
2023-03-20T01:54:43.654Z,25.17
2023-03-20T01:59:58.536Z,23.85
2023-03-20T02:05:10.277Z,21.73
2023-03-20T02:10:20.098Z,22.35
2023-03-20T02:15:37.838Z,20.55
2023-03-20T02:21:53.471Z,15.40
2023-03-20T02:27:17.278Z,13.98
2023-03-20T02:33:13.135Z,12.07
2023-03-20T02:39:02.672Z,12.02
2023-03-20T02:44:16.386Z,11.80
2023-03-20T02:49:47.415Z,12.00
2023-03-20T02:55:07.946Z,12.55
2023-03-20T03:00:25.465Z,13.15
2023-03-20T03:05:39.854Z,13.70
2023-03-20T03:10:52.857Z,11.98
2023-03-20T03:16:07.237Z,13.30
2023-03-20T03:21:20.275Z,13.65
2023-03-20T03:26:36.160Z,14.98
2023-03-20T03:31:43.457Z,14.43
2023-03-20T03:37:01.953Z,14.68
2023-03-20T03:42:17.642Z,14.77
2023-03-20T03:47:31.419Z,15.32
2023-03-20T03:52:40.521Z,13.38
2023-03-20T04:03:00.316Z,14.55
2023-03-20T04:08:08.594Z,14.25
2023-03-20T04:13:16.843Z,10.30
2023-03-20T04:18:23.630Z,14.23
2023-03-20T04:23:30.252Z,13.35
2023-03-20T04:28:38.746Z,14.15
2023-03-20T04:34:04.290Z,14.60
2023-03-20T04:39:10.910Z,14.00
2023-03-20T04:44:19.992Z,14.45
2023-03-20T04:49:29.178Z,14.13
2023-03-20T04:54:36.469Z,10.23
2023-03-20T04:59:44.870Z,12.20
2023-03-20T05:04:52.221Z,15.10
2023-03-20T05:09:58.908Z,14.32
2023-03-20T05:15:08.703Z,15.80
2023-03-20T05:20:52.775Z,19.75
2023-03-20T05:26:19.108Z,15.53
2023-03-20T05:31:49.943Z,17.02
2023-03-20T05:37:15.378Z,19.63
2023-03-20T05:42:42.186Z,20.30
2023-03-20T05:48:08.993Z,19.55
2023-03-20T05:53:20.778Z,20.17
2023-03-20T05:58:29.695Z,20.95
2023-03-20T06:04:08.839Z,20.98
2023-03-20T06:09:44.620Z,20.02
2023-03-20T06:14:53.072Z,20.67
2023-03-20T06:20:02.034Z,19.20
2023-03-20T06:30:21.451Z,19.45
2023-03-20T06:35:32.498Z,22.02
2023-03-20T06:40:39.096Z,22.15
2023-03-20T06:45:46.116Z,22.70
2023-03-20T06:51:01.737Z,22.20
2023-03-20T06:56:15.123Z,31.85
2023-03-20T07:01:21.465Z,35.05
2023-03-20T07:06:29.404Z,35.63
2023-03-20T07:11:35.919Z,39.03
2023-03-20T07:16:42.654Z,40.28
2023-03-20T07:21:50.735Z,42.33
2023-03-20T07:26:57.688Z,39.75
2023-03-20T07:32:05.196Z,38.55
2023-03-20T07:37:20.472Z,36.67
2023-03-20T07:42:40.407Z,36.33
2023-03-20T07:47:53.142Z,37.58
2023-03-20T07:53:01.402Z,36.13
2023-03-20T07:58:08.766Z,33.70
2023-03-20T08:03:15.259Z,33.65
2023-03-20T08:08:23.491Z,31.88
2023-03-20T08:13:29.921Z,28.80
2023-03-20T08:18:36.435Z,28.85
2023-03-20T08:23:44.518Z,28.52
2023-03-20T08:28:52.263Z,26.80
2023-03-20T08:33:59.380Z,26.50
2023-03-20T08:39:08.611Z,27.73
2023-03-20T08:44:15.455Z,24.52
2023-03-20T08:49:22.145Z,25.20
2023-03-20T08:54:31.129Z,27.08
2023-03-20T08:59:37.924Z,25.38
2023-03-20T09:04:44.479Z,27.17
2023-03-20T09:09:52.342Z,27.23
2023-03-20T09:14:58.792Z,24.77
2023-03-20T09:20:06.684Z,23.52
2023-03-20T09:25:14.966Z,23.83
2023-03-20T09:30:21.672Z,20.43
2023-03-20T09:35:28.058Z,21.08
2023-03-20T09:40:51.687Z,22.58
2023-03-20T09:46:12.068Z,24.65
2023-03-20T09:51:31.754Z,22.55
2023-03-20T09:56:39.856Z,19.20
2023-03-20T10:01:52.425Z,18.92
2023-03-20T10:06:59.225Z,20.77
2023-03-20T10:12:43.151Z,20.40
2023-03-20T10:17:58.977Z,20.30
2023-03-20T10:23:09.465Z,20.17
2023-03-20T10:28:23.672Z,21.45
2023-03-20T10:33:47.286Z,21.27
2023-03-20T10:39:01.088Z,21.98
2023-03-20T10:44:18.481Z,17.27
2023-03-20T10:49:35.439Z,17.33
2023-03-20T10:54:46.406Z,15.77
2023-03-20T10:59:58.649Z,17.52
2023-03-20T11:05:12.958Z,16.02
2023-03-20T11:10:19.634Z,13.20
2023-03-20T11:15:30.398Z,13.77
2023-03-20T11:20:41.195Z,13.02
2023-03-20T11:25:54.845Z,13.45
2023-03-20T11:31:07.261Z,11.82
2023-03-20T11:36:26.625Z,9.60
2023-03-20T11:41:35.294Z,8.95
2023-03-20T11:46:44.400Z,11.05
2023-03-20T11:56:59.664Z,11.55
2023-03-20T12:02:24.528Z,11.50
2023-03-20T12:07:37.029Z,9.95
2023-03-20T12:12:51.046Z,11.85
2023-03-20T12:18:03.228Z,11.05
2023-03-20T12:23:16.264Z,10.93
2023-03-20T12:28:29.764Z,12.02
2023-03-20T12:33:51.116Z,13.77
2023-03-20T12:38:57.687Z,14.05
2023-03-20T12:44:35.561Z,13.45
2023-03-20T12:49:56.313Z,12.70
2023-03-20T12:55:26.199Z,14.27
2023-03-20T13:00:39.297Z,14.50
2023-03-20T13:05:54.443Z,12.68
2023-03-20T13:11:16.185Z,13.45
2023-03-20T13:16:36.924Z,14.30
2023-03-20T13:21:57.018Z,12.18
2023-03-20T13:27:16.412Z,13.02
2023-03-20T13:32:39.879Z,8.65
2023-03-20T13:37:54.000Z,7.50
2023-03-20T13:43:09.971Z,4.82
2023-03-20T13:48:30.796Z,3.65
2023-03-20T13:53:54.813Z,3.03
2023-03-20T13:59:36.437Z,3.90
2023-03-20T14:04:43.609Z,3.22
2023-03-20T14:09:55.429Z,4.45
2023-03-20T14:15:05.575Z,4.22
2023-03-20T14:20:25.228Z,3.90
2023-03-20T14:25:43.921Z,4.20
2023-03-20T14:30:51.975Z,4.45
2023-03-20T14:36:23.904Z,4.90
2023-03-20T14:41:51.224Z,4.13
2023-03-20T14:47:04.763Z,4.25
2023-03-20T14:52:39.527Z,4.72
2023-03-20T14:57:56.641Z,5.60
2023-03-20T15:03:11.592Z,5.75
2023-03-20T15:08:25.854Z,5.75
2023-03-20T15:13:36.288Z,5.68
2023-03-20T15:18:45.492Z,6.03
2023-03-20T15:23:53.242Z,6.60
2023-03-20T15:29:05.429Z,5.78
2023-03-20T15:34:21.472Z,6.15
2023-03-20T15:39:29.619Z,7.30
2023-03-20T15:44:40.787Z,7.07
2023-03-20T15:49:54.290Z,8.23
2023-03-20T15:55:07.778Z,7.28
2023-03-20T16:00:22.812Z,7.82
2023-03-20T16:05:31.967Z,7.50
2023-03-20T16:10:38.950Z,6.72
2023-03-20T16:15:47.991Z,7.10
2023-03-20T16:26:08.085Z,7.20
2023-03-20T16:31:22.140Z,7.45
2023-03-20T16:36:33.687Z,7.57
2023-03-20T16:41:42.429Z,7.75
2023-03-20T16:47:04.489Z,8.32
2023-03-20T16:52:16.728Z,8.00
2023-03-20T16:57:23.255Z,7.55
2023-03-20T17:02:38.680Z,6.55
2023-03-20T17:07:46.076Z,7.70
2023-03-20T17:12:53.687Z,8.45
2023-03-20T17:18:04.652Z,8.10
2023-03-20T17:23:16.647Z,9.07
2023-03-20T17:28:30.408Z,9.77
2023-03-20T17:33:38.734Z,9.75
2023-03-20T17:38:45.879Z,10.47
2023-03-20T17:43:53.960Z,9.18
2023-03-20T17:49:07.050Z,10.77
2023-03-20T17:54:15.645Z,10.23
2023-03-20T17:59:25.318Z,8.70
2023-03-20T18:04:35.350Z,9.15
2023-03-20T18:09:46.083Z,7.68
2023-03-20T18:14:56.278Z,7.63
2023-03-20T18:20:08.748Z,7.13
2023-03-20T18:25:18.392Z,7.28
2023-03-20T18:30:32.554Z,7.72
2023-03-20T18:35:49.371Z,8.32
2023-03-20T18:41:13.329Z,9.15
2023-03-20T18:46:31.641Z,8.38
2023-03-20T18:51:42.930Z,8.57
2023-03-20T18:56:55.324Z,7.93
2023-03-20T19:02:04.369Z,10.48
2023-03-20T19:07:16.698Z,9.38
2023-03-20T19:12:26.585Z,9.20
2023-03-20T19:17:45.457Z,10.05
2023-03-20T19:22:58.268Z,11.82
2023-03-20T19:28:37.655Z,13.50
2023-03-20T19:33:50.807Z,17.95
2023-03-20T19:39:04.902Z,22.55
2023-03-20T19:44:13.555Z,22.65
2023-03-20T19:49:30.776Z,20.50
2023-03-20T19:55:00.241Z,17.83
2023-03-20T20:05:49.885Z,12.05
2023-03-20T20:11:00.860Z,12.15
2023-03-20T20:16:14.600Z,11.20
2023-03-20T20:27:18.237Z,11.88
2023-03-20T20:32:31.621Z,11.27
2023-03-20T20:43:38.931Z,11.23
2023-03-20T20:48:46.428Z,11.88
2023-03-20T20:53:54.767Z,11.40
2023-03-20T20:59:04.225Z,11.77
2023-03-20T21:04:13.995Z,12.45
2023-03-20T21:09:22.193Z,11.27
2023-03-20T21:14:32.111Z,12.53
2023-03-20T21:19:45.726Z,10.30
2023-03-20T21:25:11.121Z,11.27
2023-03-20T21:30:22.853Z,9.50
2023-03-20T21:35:29.808Z,9.25
2023-03-20T21:40:36.963Z,10.85
2023-03-20T22:02:23.492Z,9.52
2023-03-20T22:13:51.294Z,8.77
2023-03-20T22:30:01.677Z,9.00
2023-03-20T22:35:47.173Z,10.57
2023-03-20T22:46:03.409Z,10.02
2023-03-20T22:52:26.473Z,10.27
2023-03-20T22:57:45.502Z,10.27
2023-03-20T23:03:06.731Z,11.27
2023-03-20T23:08:22.786Z,11.70
2023-03-20T23:13:48.582Z,12.32
2023-03-20T23:18:55.037Z,11.77
2023-03-20T23:24:03.127Z,12.00
2023-03-20T23:29:09.918Z,12.93
2023-03-20T23:34:18.082Z,12.07
2023-03-20T23:39:26.328Z,12.83
2023-03-20T23:44:32.694Z,12.43
2023-03-20T23:49:40.176Z,12.55
2023-03-20T23:54:48.136Z,11.98
2023-03-20T23:59:54.463Z,12.88
